Latest Weather Observations for Blackall

IDQ60801

Issued at 10:12 am EST Tuesday 14 July 2020 (issued every 10 minutes, with the page automatically refreshed every 10 minutes)

About weather observations | Map of weather stations | Latest weather observations for QLD | Other Formats
Station Details ID: 036034 Name: BLACKALL AIRPORT Lat: -24.43 Lon: 145.43 Height: 281.3 m
Data from the previous 72 hours. | See also: Recent months at Blackall
Date/Time
EST
Temp
°C
App
Temp
°C
Dew
Point
°C
Rel
Hum
%
Delta-T
°C
Wind Press
QNH
hPa
Press
MSL
hPa
Rain since
9am
mm
Dir  Spd
km/h
Gust
km/h
Spd
kts
Gust
kts
14/10:00am 12.1 7.6 2.3 51 4.3 SE 15 22 8 12 1025.5 1025.2 0.0
14/09:30am 11.0 6.5 2.3 55 3.8 SE 15 20 8 11 1025.7 1025.4 0.0
14/09:00am 8.9 5.0 1.3 59 3.1 SE 11 17 6 9 1025.5 1025.2 0.0
14/08:30am 6.6 3.9 0.1 63 2.6 E 4 7 2 4 1025.4 1025.1 0.0
14/08:00am 4.7 2.7 -0.3 70 1.9 CALM 0 0 0 0 1025.0 1024.8 0.0
14/07:30am 2.1 -1.2 -1.2 79 1.2 E 6 6 3 3 1024.8 1024.6 0.0
14/07:00am 0.9 -1.4 -2.3 79 1.2 CALM 0 0 0 0 1024.5 1024.3 0.0
14/06:30am 2.0 -1.3 -1.4 78 1.2 SE 6 6 3 3 1024.3 1024.1 0.0
14/06:00am 2.5 -1.3 -0.9 78 1.2 SSE 9 11 5 6 1023.8 1023.5 0.0
14/05:30am 2.5 -1.0 -1.3 76 1.4 SSE 7 9 4 5 1023.7 1023.4 0.0
14/05:00am 2.6 -1.0 -1.9 72 1.6 SE 7 9 4 5 1023.2 1022.9 0.0
14/04:30am 3.2 -0.3 -1.2 73 1.6 SSE 7 9 4 5 1023.3 1023.0 0.0
14/04:00am 3.4 -0.5 -1.3 71 1.7 SSE 9 9 5 5 1023.1 1022.8 0.0
14/03:30am 4.3 0.5 -1.1 68 2.0 S 9 11 5 6 1023.2 1022.9 0.0
14/03:00am 4.5 0.3 -0.9 68 2.0 S 11 13 6 7 1023.1 1022.8 0.0
14/02:30am 4.7 0.9 -1.1 66 2.2 SSE 9 11 5 6 1023.1 1022.8 0.0
14/02:00am 5.3 1.4 -1.2 63 2.4 SE 9 11 5 6 1023.3 1023.0 0.0
14/01:30am 6.9 3.5 -0.5 59 2.9 SSE 7 11 4 6 1023.4 1023.1 0.0
14/01:00am 7.9 3.8 -0.3 56 3.2 SSE 11 15 6 8 1023.4 1023.1 0.0
14/12:30am 8.0 3.9 -0.2 56 3.3 SSE 11 17 6 9 1023.2 1022.9 0.0
14/12:00am 8.5 4.4 -0.5 53 3.6 S 11 15 6 8 1023.4 1023.1 0.0
 
Date/Time
EST
Temp
°C
App
Temp
°C
Dew
Point
°C
Rel
Hum
%
Delta-T
°C
Wind Press
QNH
hPa
Press
MSL
hPa
Rain since
9am
mm
Dir  Spd
km/h
Gust
km/h
Spd
kts
Gust
kts
13/11:30pm 8.8 4.3 -0.2 53 3.6 S 13 17 7 9 1023.4 1023.1 0.0
13/11:00pm 8.7 4.6 -0.3 53 3.6 S 11 15 6 8 1023.7 1023.4 0.0
13/10:30pm 9.0 4.8 -0.6 51 3.8 S 11 15 6 8 1023.7 1023.4 0.0
13/10:00pm 9.5 5.4 -0.4 50 4.0 S 11 13 6 7 1023.4 1023.1 0.0
13/09:30pm 10.6 6.5 -0.2 47 4.4 S 11 15 6 8 1023.6 1023.3 0.0
13/09:00pm 11.2 7.2 0.3 47 4.5 S 11 17 6 9 1023.3 1023.0 0.0
13/08:30pm 11.9 7.1 0.4 45 4.8 S 15 19 8 10 1023.2 1022.9 0.0
13/08:00pm 11.7 7.6 -0.1 44 4.9 S 11 15 6 8 1023.1 1022.8 0.0
13/07:30pm 11.9 8.1 -0.6 42 5.1 S 9 13 5 7 1022.9 1022.6 0.0
13/07:00pm 12.8 9.0 -0.4 40 5.5 S 9 11 5 6 1022.5 1022.2 0.0
13/06:30pm 13.5 9.6 -1.3 36 6.1 S 9 11 5 6 1022.1 1021.8 0.0
13/06:00pm 15.0 11.2 -1.1 33 6.7 S 9 13 5 7 1021.7 1021.4 0.0
13/05:30pm 16.2 11.6 -1.4 30 7.4 SSW 13 17 7 9 1021.4 1021.2 0.0
13/05:00pm 17.1 12.1 -1.5 28 7.9 SSW 15 20 8 11 1021.1 1020.9 0.0
13/04:30pm 17.6 12.2 -1.6 27 8.2 SW 17 28 9 15 1021.0 1020.8 0.0
13/04:00pm 18.3 12.9 -1.0 27 8.3 SSW 17 32 9 17 1021.0 1020.8 0.0
13/03:30pm 18.1 12.1 -1.2 27 8.3 SSW 20 24 11 13 1020.7 1020.4 0.0
13/03:00pm 17.9 13.0 -0.8 28 8.1 SSW 15 28 8 15 1020.7 1020.4 0.0
13/02:30pm 18.5 13.7 0.2 29 8.1 SW 15 30 8 16 1021.0 1020.8 0.0
13/02:00pm 17.0 11.8 -0.2 31 7.5 S 17 28 9 15 1021.1 1020.9 0.0
13/01:30pm 17.3 12.5 0.0 31 7.6 SSW 15 26 8 14 1021.2 1021.0 0.0
13/01:00pm 16.1 10.8 -0.6 32 7.1 SSW 17 39 9 21 1021.7 1021.4 0.0
13/12:30pm 15.4 10.4 1.2 38 6.3 SSW 17 26 9 14 1022.2 1021.9 0.0
13/12:00pm 15.2 10.3 2.1 41 5.9 S 17 24 9 13 1022.6 1022.3 0.0
13/11:30am 14.5 9.6 1.8 42 5.6 S 17 28 9 15 1023.0 1022.7 0.0
13/11:00am 14.2 9.3 2.1 44 5.4 SSE 17 28 9 15 1023.4 1023.1 0.0
13/10:30am 13.3 7.9 2.5 48 4.8 S 20 30 11 16 1023.6 1023.3 0.0
13/10:00am 12.4 7.8 3.6 55 4.0 S 17 20 9 11 1023.8 1023.5 0.0
13/09:30am 11.3 6.3 3.8 60 3.4 S 19 24 10 13 1023.9 1023.6 0.0
13/09:00am 10.3 6.8 3.6 63 3.0 S 11 17 6 9 1023.4 1023.1 0.0
13/08:30am 8.0 4.7 2.7 69 2.3 S 9 13 5 7 1023.4 1023.1 0.0
13/08:00am 5.5 2.4 1.6 76 1.6 S 7 9 4 5 1023.1 1022.8 0.0
13/07:30am 2.8 -0.6 -0.6 78 1.3 SSE 7 7 4 4 1022.5 1022.2 0.0
13/07:00am 2.3 -1.6 -1.3 77 1.3 SSE 9 9 5 5 1022.2 1021.9 0.0
13/06:30am 3.3 0.0 0.4 81 1.1 S 7 9 4 5 1022.1 1021.8 0.0
13/06:00am 3.5 -0.5 0.2 79 1.3 S 11 13 6 7 1021.7 1021.4 0.0
13/05:30am 2.7 -0.7 -0.9 77 1.3 S 7 9 4 5 1021.2 1021.0 0.0
13/05:00am 2.8 -0.7 -1.2 75 1.5 S 7 11 4 6 1021.2 1021.0 0.0
13/04:30am 2.2 -1.4 -1.9 74 1.5 SSW 7 9 4 5 1020.9 1020.7 0.0
13/04:00am 2.2 -1.8 -2.1 73 1.5 SSE 9 11 5 6 1020.8 1020.5 0.0
13/03:30am 2.6 -0.8 -1.9 72 1.6 S 6 7 3 4 1020.8 1020.5 0.0
13/03:00am 2.6 -0.9 -1.7 73 1.5 SSW 7 9 4 5 1020.8 1020.5 0.0
13/02:30am 3.1 0.8 -2.2 68 1.9 CALM 0 0 0 0 1020.7 1020.4 0.0
13/02:00am 3.3 0.3 -2.2 67 2.0 SW 4 7 2 4 1020.7 1020.4 0.0
13/01:30am 3.6 0.1 -1.3 70 1.8 SSW 7 9 4 5 1020.6 1020.3 0.0
13/01:00am 4.0 0.6 -1.8 66 2.1 SSW 6 7 3 4 1020.6 1020.3 0.0
13/12:30am 4.8 1.3 -1.4 64 2.3 SSW 7 7 4 4 1020.7 1020.4 0.0
13/12:00am 5.1 1.8 -1.6 62 2.5 S 6 6 3 3 1020.7 1020.4 0.0
 
Date/Time
EST
Temp
°C
App
Temp
°C
Dew
Point
°C
Rel
Hum
%
Delta-T
°C
Wind Press
QNH
hPa
Press
MSL
hPa
Rain since
9am
mm
Dir  Spd
km/h
Gust
km/h
Spd
kts
Gust
kts
12/11:30pm 5.9 2.0 -1.5 59 2.8 SSW 9 9 5 5 1020.7 1020.4 0.0
12/11:00pm 6.9 3.4 -1.5 55 3.2 SSW 7 9 4 5 1020.9 1020.7 0.0
12/10:30pm 7.1 3.7 -2.3 51 3.5 SW 6 7 3 4 1021.0 1020.8 0.0
12/10:00pm 8.3 4.8 -1.5 50 3.8 WSW 7 9 4 5 1020.9 1020.7 0.0
12/09:30pm 9.6 6.2 -0.9 48 4.2 WSW 7 9 4 5 1020.7 1020.4 0.0
12/09:00pm 10.5 6.3 -0.9 45 4.6 WSW 11 13 6 7 1020.4 1020.1 0.0
12/08:30pm 11.4 7.9 -1.0 42 5.0 SW 7 11 4 6 1020.1 1019.8 0.0
12/08:00pm 12.4 8.5 -1.5 38 5.6 WSW 9 13 5 7 1019.8 1019.5 0.0
12/07:30pm 12.8 8.5 -1.9 36 5.9 WSW 11 13 6 7 1019.3 1019.0 0.0
12/07:00pm 14.2 10.1 -2.7 31 6.8 W 9 11 5 6 1018.8 1018.5 0.0
12/06:30pm 15.2 10.7 -3.2 28 7.4 W 11 17 6 9 1018.2 1017.9 0.0
12/06:00pm 16.6 12.0 -4.0 24 8.2 W 11 15 6 8 1017.7 1017.4 0.0
12/05:30pm 18.2 13.1 -5.1 20 9.3 W 13 20 7 11 1017.3 1017.0 0.0
12/05:00pm 19.5 13.2 -6.2 17 10.1 W 19 24 10 13 1017.1 1016.8 0.0
12/04:30pm 20.4 16.0 -5.4 17 10.4 W 9 15 5 8 1017.0 1016.7 0.0
12/04:00pm 20.3 15.3 -4.0 19 10.1 WSW 13 17 7 9 1017.1 1016.8 0.0
12/03:30pm 19.8 14.9 -3.8 20 9.8 WSW 13 22 7 12 1017.1 1016.8 0.0
12/03:00pm 19.9 14.7 -2.4 22 9.5 SW 15 26 8 14 1017.4 1017.1 0.0
12/02:30pm 19.5 14.1 -1.0 25 9.0 WSW 17 28 9 15 1017.5 1017.2 0.0
12/02:00pm 19.4 14.0 -1.7 24 9.1 WSW 17 24 9 13 1017.9 1017.5 0.0
12/01:30pm 19.4 14.6 -0.1 27 8.7 SW 15 24 8 13 1018.2 1017.9 0.0
12/01:00pm 18.6 14.8 1.6 32 7.8 SW 11 20 6 11 1018.7 1018.4 0.0
12/12:30pm 17.3 12.9 2.5 37 6.8 SW 15 24 8 13 1019.2 1018.9 0.0
12/12:00pm 17.3 12.8 4.3 42 6.2 SSW 17 26 9 14 1019.7 1019.4 0.0
12/11:30am 16.8 12.0 4.8 45 5.8 SSW 19 28 10 15 1019.9 1019.6 0.0
12/11:00am 16.4 12.3 6.0 50 5.1 SSW 17 26 9 14 1020.2 1019.9 0.0
12/10:30am 15.0 10.2 5.5 53 4.6 SSW 20 28 11 15 1020.4 1020.1 0.0
12/10:00am 14.9 9.4 5.7 54 4.4 SSW 24 33 13 18 1020.4 1020.1 0.0
12/09:30am 14.1 8.7 6.5 60 3.7 SSW 24 33 13 18 1020.2 1019.9 0.0
12/09:00am 12.8 8.6 7.3 69 2.7 SSW 19 28 10 15 1020.0 1019.7 0.2
12/08:30am 11.4 7.7 7.9 79 1.7 SSW 17 24 9 13 1019.6 1019.3 0.2
12/08:00am 9.6 6.1 7.2 85 1.1 SSW 15 19 8 10 1019.3 1019.0 0.2
12/07:30am 8.8 5.6 6.8 87 0.9 SSW 13 17 7 9 1018.9 1018.6 0.2
12/07:00am 8.9 5.7 6.9 87 0.9 SSW 13 17 7 9 1018.5 1018.2 0.2
12/06:30am 9.3 5.8 7.3 87 1.0 SSW 15 19 8 10 1018.1 1017.8 0.2
12/06:00am 9.2 6.6 7.6 90 0.8 SW 11 15 6 8 1017.7 1017.4 0.2
12/05:30am 9.4 7.0 8.5 94 0.4 SSW 11 13 6 7 1017.4 1017.1 0.2
12/05:00am 9.5 7.7 9.4 99 0.1 SW 9 13 5 7 1017.3 1017.0 0.2
12/04:30am 10.2 8.9 10.1 99 0.1 SW 7 7 4 4 1017.0 1016.7 0.2
12/04:00am 10.2 8.6 10.1 99 0.1 SSW 9 9 5 5 1016.9 1016.6 0.2
12/03:30am 11.0 10.0 11.0 100 0.0 SSW 7 9 4 5 1017.0 1016.7 0.2
12/03:00am 10.6 8.7 10.4 99 0.1 SW 11 13 6 7 1017.0 1016.7 0.2
12/02:30am 9.7 9.6 9.4 98 0.2 CALM 0 0 0 0 1016.7 1016.4 0.2
12/02:00am 9.8 9.6 8.9 94 0.4 CALM 0 0 0 0 1017.0 1016.7 0.2
12/01:30am 10.1 8.6 8.5 90 0.8 SSE 6 7 3 4 1017.0 1016.7 0.2
12/01:00am 11.2 9.8 8.9 86 1.2 SSE 6 7 3 4 1017.3 1017.0 0.2
12/12:30am 12.8 11.6 10.2 84 1.4 SSE 7 9 4 5 1017.4 1017.1 0.2
12/12:00am 14.0 12.9 10.8 81 1.7 ESE 7 7 4 4 1017.9 1017.5 0.2
 
Date/Time
EST
Temp
°C
App
Temp
°C
Dew
Point
°C
Rel
Hum
%
Delta-T
°C
Wind Press
QNH
hPa
Press
MSL
hPa
Rain since
9am
mm
Dir  Spd
km/h
Gust
km/h
Spd
kts
Gust
kts
11/11:30pm 15.0 13.9 10.8 76 2.3 SE 7 9 4 5 1018.1 1017.8 0.2
11/11:00pm 15.6 13.8 10.8 73 2.6 S 11 15 6 8 1018.1 1017.8 0.2
11/10:30pm 16.3 14.7 11.5 73 2.6 S 11 15 6 8 1018.1 1017.8 0.2
11/10:00pm 16.3 14.9 12.1 76 2.3 S 11 15 6 8 1018.2 1017.9 0.2
11/09:30pm 16.5 15.3 12.7 78 2.1 S 11 17 6 9 1018.1 1017.8 0.2
11/09:00pm 16.7 15.4 13.8 83 1.7 S 13 15 7 8 1018.0 1017.7 0.2
11/08:30pm 16.9 16.3 14.5 86 1.4 SSW 11 13 6 7 1018.0 1017.7 0.2
11/08:00pm 17.3 17.5 14.8 85 1.5 S 7 9 4 5 1017.6 1017.3 0.2
11/07:30pm 17.3 17.4 14.4 83 1.7 SSE 7 11 4 6 1017.3 1017.0 0.2
11/07:00pm 17.8 17.5 14.5 81 1.9 SSE 9 13 5 7 1016.9 1016.6 0.2
11/06:30pm 17.9 16.9 14.6 81 1.9 S 13 19 7 10 1016.8 1016.5 0.2
11/06:00pm 18.3 17.1 15.0 81 1.9 S 15 22 8 12 1016.6 1016.3 0.2
11/05:30pm 19.9 20.7 13.8 68 3.6 NE 2 17 1 9 1016.3 1016.0 0.2
11/05:00pm 21.0 18.9 11.1 53 5.5 WNW 13 20 7 11 1016.0 1015.7 0.0
11/04:30pm 22.3 19.9 12.5 53 5.6 SSW 17 20 9 11 1015.5 1015.2 0.0
11/04:00pm 23.7 20.6 11.7 47 6.9 SW 19 28 10 15 1015.6 1015.3 0.0
11/03:30pm 26.2 23.3 8.2 32 9.8 NW 13 20 7 11 1015.3 1015.0 0.0
11/03:00pm 26.1 22.4 8.1 32 9.8 NNW 17 24 9 13 1015.3 1015.0 0.0
11/02:30pm 26.0 22.6 10.6 38 8.7 W 19 28 10 15 1015.7 1015.4 0.0
11/02:00pm 24.6 22.0 11.9 45 7.3 WNW 17 28 9 15 1016.2 1015.9 0.0
11/01:30pm 25.0 23.1 12.9 47 7.1 WNW 15 28 8 15 1016.6 1016.3 0.0
11/01:00pm 25.0 22.2 13.2 48 6.9 NW 20 32 11 17 1017.1 1016.8 0.0
11/12:30pm 24.0 22.3 13.5 52 6.2 NW 15 26 8 14 1017.7 1017.4 0.0
11/12:00pm 24.0 22.4 13.8 53 6.0 NNW 15 26 8 14 1018.4 1018.1 0.0
11/11:30am 22.8 20.0 13.3 55 5.6 NNW 20 28 11 15 1018.8 1018.5 0.0
11/11:00am 22.9 20.4 14.2 58 5.2 N 20 28 11 15 1019.0 1018.7 0.0
11/10:30am 22.3 19.8 14.2 60 4.8 N 20 32 11 17 1019.4 1019.1 0.0

Other formats

Comma delimited format used in spreadsheet applications
http://www.bom.gov.au/fwo/IDQ60801/IDQ60801.95351.axf

JavaScript Object Notation format (JSON) in row-major order
http://www.bom.gov.au/fwo/IDQ60801/IDQ60801.95351.json

Data quality

Most of these data are generated automatically and are frequently updated. Quality checks on data are not normally performed. It is possible for incorrect values to appear. Refer to information at About Latest Weather Observations and please check the disclaimer before using these data.